Fry Canyon, Utah
Current Conditions -  °F | °C
As of 2:35 AM on Tuesday 21 Oct 2014 (Local Time) from KBDG Reporting Station
Scattered Clouds Scattered Clouds  
Wind Chill: 47°   Ceiling: Unl
Heat Index: 49°   Visibility: 10mi
Dew Point: 40°   Wind: 6mph
Humidity: 71%   Direction: 30°NNE
Pressure: 30.19"   Gusts: NA
Location:  37.6208°N, 109.479°W
Report Text: KBDG 210835Z AUTO 03005KT 10SM SCT110 10/05 A3019 RMK AO1 T00960045
Loading
Personal Weather Stations






























Interactive Weather Map
Tropical Storm Tracking
New forecast layout! Learn more

10-Day Weather Forecast

Advertisements
Track Severe Weather on mobile